createdAt,value
2018-01-03T00:01:19.717Z,94011.66
2018-01-03T00:03:47.352Z,94019.55
2018-01-03T00:06:14.947Z,94022.56
2018-01-03T00:08:42.545Z,94022.97
2018-01-03T00:11:10.071Z,94027.78
2018-01-03T00:13:37.598Z,94038.84
2018-01-03T00:16:05.128Z,94037.64
2018-01-03T00:18:32.663Z,94041.92
2018-01-03T00:21:00.289Z,94043.13
2018-01-03T00:23:27.807Z,94041.92
2018-01-03T00:25:55.334Z,94040.94
2018-01-03T00:28:22.861Z,94037.86
2018-01-03T00:30:50.391Z,94034.03
2018-01-03T00:33:17.915Z,94039.95
2018-01-03T00:35:45.521Z,94038.44
2018-01-03T00:38:13.040Z,94045.67
2018-01-03T00:40:40.596Z,94042.38
2018-01-03T00:43:08.225Z,94043.31
2018-01-03T00:45:35.845Z,94049.73
2018-01-03T00:48:03.371Z,94053.02
2018-01-03T00:50:30.895Z,94047.84
2018-01-03T00:52:58.525Z,94052.41
2018-01-03T00:55:26.061Z,94046.86
2018-01-03T00:57:53.586Z,94052.87
2018-01-03T01:00:21.222Z,94046.56
2018-01-03T01:02:48.743Z,94046.20
2018-01-03T01:05:16.265Z,94052.61
2018-01-03T01:07:43.782Z,94054.38
2018-01-03T01:10:11.306Z,94045.86
2018-01-03T01:12:38.835Z,94052.16
2018-01-03T01:15:06.360Z,94051.25
2018-01-03T01:17:33.920Z,94051.14
2018-01-03T01:20:01.440Z,94056.23
2018-01-03T01:22:28.972Z,94052.45
2018-01-03T01:24:56.491Z,94059.31
2018-01-03T01:27:24.089Z,94050.48
2018-01-03T01:29:51.644Z,94052.28
2018-01-03T01:32:19.205Z,94054.94
2018-01-03T01:34:46.796Z,94060.05
2018-01-03T01:37:14.318Z,94056.59
2018-01-03T01:39:41.843Z,94059.88
2018-01-03T01:42:09.372Z,94056.84
2018-01-03T01:44:37.016Z,94064.09
2018-01-03T01:47:04.535Z,94061.91
2018-01-03T01:49:32.051Z,94055.16
2018-01-03T01:51:59.578Z,94050.59
2018-01-03T01:54:27.105Z,94055.32
2018-01-03T01:56:54.631Z,94053.70
2018-01-03T01:59:22.232Z,94057.98
2018-01-03T02:01:49.759Z,94057.08
2018-01-03T02:04:17.351Z,94060.38
2018-01-03T02:06:44.882Z,94059.88
2018-01-03T02:09:12.403Z,94059.36
2018-01-03T02:11:39.926Z,94060.75
2018-01-03T02:14:07.484Z,94057.79
2018-01-03T02:16:35.030Z,94055.65
2018-01-03T02:19:02.554Z,94059.92
2018-01-03T02:21:30.081Z,94057.88
2018-01-03T02:23:57.669Z,94054.98
2018-01-03T02:26:25.223Z,94056.27
2018-01-03T02:28:52.756Z,94052.44
2018-01-03T02:31:20.346Z,94056.55
2018-01-03T02:33:47.863Z,94052.61
2018-01-03T02:36:15.481Z,94050.48
2018-01-03T02:38:43.022Z,94048.79
2018-01-03T02:41:10.539Z,94045.04
2018-01-03T02:43:38.096Z,94044.17
2018-01-03T02:46:05.620Z,94040.39
2018-01-03T02:48:33.161Z,94046.23
2018-01-03T02:51:00.683Z,94044.52
2018-01-03T02:53:28.204Z,94047.52
2018-01-03T02:55:55.718Z,94038.21
2018-01-03T02:58:23.335Z,94040.84
2018-01-03T03:00:50.893Z,94041.25
2018-01-03T03:03:18.417Z,94036.69
2018-01-03T03:05:46.039Z,94030.77
2018-01-03T03:08:13.565Z,94029.94
2018-01-03T03:10:41.088Z,94031.59
2018-01-03T03:13:08.607Z,94037.84
2018-01-03T03:15:36.133Z,94022.95
2018-01-03T03:18:03.672Z,94026.73
2018-01-03T03:20:31.190Z,94027.60
2018-01-03T03:22:58.718Z,94030.94
2018-01-03T03:25:26.241Z,94034.06
2018-01-03T03:27:53.796Z,94028.17
2018-01-03T03:30:21.391Z,94032.16
2018-01-03T03:32:48.907Z,94033.47
2018-01-03T03:35:16.511Z,94031.38
2018-01-03T03:37:44.099Z,94034.63
2018-01-03T03:40:11.652Z,94035.41
2018-01-03T03:42:39.179Z,94022.17
2018-01-03T03:45:06.752Z,94032.58
2018-01-03T03:47:34.278Z,94028.19
2018-01-03T03:50:01.802Z,94037.16
2018-01-03T03:52:29.334Z,94035.31
2018-01-03T03:54:56.855Z,94043.78
2018-01-03T03:57:24.406Z,94033.47
2018-01-03T03:59:51.939Z,94043.47
2018-01-03T04:02:19.460Z,94039.89
2018-01-03T04:04:46.975Z,94027.95
2018-01-03T04:07:14.494Z,94027.55
2018-01-03T04:09:42.022Z,94024.63
2018-01-03T04:12:09.614Z,94022.61
2018-01-03T04:14:37.162Z,94031.44
2018-01-03T04:17:04.679Z,94024.81
2018-01-03T04:19:32.325Z,94033.74
2018-01-03T04:21:59.827Z,94033.58
2018-01-03T04:24:27.348Z,94025.36
2018-01-03T04:26:54.867Z,94017.63
2018-01-03T04:29:22.380Z,94017.14
2018-01-03T04:31:49.900Z,94020.63
2018-01-03T04:34:17.425Z,94023.47
2018-01-03T04:36:44.943Z,94020.63
2018-01-03T04:39:12.458Z,94017.96
2018-01-03T04:41:39.975Z,94026.39
2018-01-03T04:44:07.490Z,94031.78
2018-01-03T04:46:35.027Z,94037.34
2018-01-03T04:49:02.539Z,94030.44
2018-01-03T04:51:30.067Z,94037.62
2018-01-03T04:53:57.615Z,94048.41
2018-01-03T04:56:25.201Z,94050.20
2018-01-03T04:58:52.758Z,94050.04
2018-01-03T05:01:20.346Z,94049.04
2018-01-03T05:03:47.931Z,94051.30
2018-01-03T05:06:15.444Z,94051.87
2018-01-03T05:08:42.963Z,94047.63
2018-01-03T05:11:10.519Z,94050.14
2018-01-03T05:13:38.036Z,94048.45
2018-01-03T05:16:05.626Z,94048.00
2018-01-03T05:18:33.142Z,94044.62
2018-01-03T05:21:00.659Z,94045.86
2018-01-03T05:23:28.184Z,94048.22
2018-01-03T05:25:55.699Z,94046.03
2018-01-03T05:28:23.247Z,94050.73
2018-01-03T05:30:50.767Z,94050.56
2018-01-03T05:33:18.352Z,94055.26
2018-01-03T05:35:45.882Z,94052.25
2018-01-03T05:38:13.465Z,94061.70
2018-01-03T05:40:40.978Z,94062.24
2018-01-03T05:43:08.569Z,94056.09
2018-01-03T05:45:36.116Z,94062.97
2018-01-03T05:48:03.634Z,94061.56
2018-01-03T05:50:31.154Z,94072.58
2018-01-03T05:52:58.671Z,94082.36
2018-01-03T05:55:26.186Z,94077.67
2018-01-03T05:57:53.718Z,94079.70
2018-01-03T06:00:21.239Z,94079.70
2018-01-03T06:02:48.820Z,94085.58
2018-01-03T06:05:16.405Z,94088.47
2018-01-03T06:07:43.955Z,94086.73
2018-01-03T06:10:11.549Z,94083.20
2018-01-03T06:12:39.072Z,94088.68
2018-01-03T06:15:06.589Z,94093.66
2018-01-03T06:17:34.107Z,94092.91
2018-01-03T06:20:01.623Z,94094.19
2018-01-03T06:22:29.209Z,94096.03
2018-01-03T06:24:56.756Z,94090.97
2018-01-03T06:27:24.347Z,94090.68
2018-01-03T06:29:51.874Z,94103.92
2018-01-03T06:32:19.391Z,94103.05
2018-01-03T06:34:46.914Z,94107.66
2018-01-03T06:37:14.431Z,94112.31
2018-01-03T06:39:41.944Z,94112.16
2018-01-03T06:42:09.498Z,94126.10
2018-01-03T06:44:37.022Z,94117.75
2018-01-03T06:47:04.601Z,94119.02
2018-01-03T06:49:32.122Z,94119.95
2018-01-03T06:51:59.642Z,94116.59
2018-01-03T06:54:27.188Z,94125.92
2018-01-03T06:56:54.715Z,94126.71
2018-01-03T06:59:22.329Z,94125.84
2018-01-03T07:01:49.855Z,94134.77
2018-01-03T07:04:17.370Z,94135.09
2018-01-03T07:06:44.899Z,94137.69
2018-01-03T07:09:12.483Z,94136.71
2018-01-03T07:11:39.999Z,94142.22
2018-01-03T07:14:07.592Z,94138.44
2018-01-03T07:16:35.122Z,94145.75
2018-01-03T07:19:02.639Z,94142.01
2018-01-03T07:21:30.220Z,94138.70
2018-01-03T07:23:57.735Z,94141.38
2018-01-03T07:26:25.258Z,94143.52
2018-01-03T07:28:52.787Z,94151.66
2018-01-03T07:31:20.318Z,94149.88
2018-01-03T07:33:47.834Z,94159.15
2018-01-03T07:36:15.437Z,94159.11
2018-01-03T07:38:43.058Z,94165.84
2018-01-03T07:41:10.571Z,94163.64
2018-01-03T07:43:38.093Z,94167.31
2018-01-03T07:46:05.613Z,94178.83
2018-01-03T07:48:33.131Z,94169.56
2018-01-03T07:51:00.684Z,94174.41
2018-01-03T07:53:28.277Z,94177.00
2018-01-03T07:55:55.803Z,94166.95
2018-01-03T07:58:23.315Z,94172.16
2018-01-03T08:00:50.835Z,94171.75
2018-01-03T08:03:18.351Z,94172.53
2018-01-03T08:05:45.903Z,94169.12
2018-01-03T08:08:13.487Z,94166.91
2018-01-03T08:10:41.072Z,94167.20
2018-01-03T08:13:08.618Z,94167.12
2018-01-03T08:15:36.206Z,94170.84
2018-01-03T08:18:03.743Z,94166.97
2018-01-03T08:20:31.371Z,94166.90
2018-01-03T08:22:58.981Z,94167.35
2018-01-03T08:25:26.504Z,94168.29
2018-01-03T08:27:54.086Z,94168.85
2018-01-03T08:30:21.604Z,94162.18
2018-01-03T08:32:49.123Z,94168.64
2018-01-03T08:35:16.714Z,94168.34
2018-01-03T08:37:44.328Z,94167.52
2018-01-03T08:40:11.843Z,94168.30
2018-01-03T08:42:39.359Z,94167.36
2018-01-03T08:45:06.944Z,94166.87
2018-01-03T08:47:34.458Z,94157.83
2018-01-03T08:50:02.003Z,94147.27
2018-01-03T08:52:29.515Z,94148.65
2018-01-03T08:54:57.105Z,94143.97
2018-01-03T08:57:24.694Z,94152.48
2018-01-03T08:59:52.219Z,94149.52
2018-01-03T09:02:19.743Z,94145.35
2018-01-03T09:04:47.259Z,94143.55
2018-01-03T09:07:14.803Z,94146.52
2018-01-03T09:09:42.319Z,94146.81
2018-01-03T09:12:09.840Z,94142.95
2018-01-03T09:14:37.428Z,94135.70
2018-01-03T09:17:04.959Z,94141.55
2018-01-03T09:19:32.484Z,94138.52
2018-01-03T09:22:00.011Z,94129.22
2018-01-03T09:24:27.576Z,94126.67
2018-01-03T09:26:55.108Z,94129.38
2018-01-03T09:29:22.724Z,94133.24
2018-01-03T09:31:50.238Z,94127.05
2018-01-03T09:34:17.754Z,94129.61
2018-01-03T09:36:45.270Z,94120.68
2018-01-03T09:39:12.861Z,94113.78
2018-01-03T09:41:40.414Z,94109.84
2018-01-03T09:44:07.932Z,94110.96
2018-01-03T09:46:35.448Z,94108.94
2018-01-03T09:49:02.962Z,94106.84
2018-01-03T09:51:30.486Z,94097.17
2018-01-03T09:53:58.042Z,94103.54
2018-01-03T09:56:25.559Z,94095.64
2018-01-03T09:58:53.085Z,94093.58
2018-01-03T10:01:20.598Z,94096.66
2018-01-03T10:03:48.123Z,94098.68
2018-01-03T10:06:15.647Z,94099.47
2018-01-03T10:08:43.167Z,94094.20
2018-01-03T10:11:10.715Z,94094.55
2018-01-03T10:13:38.231Z,94090.27
2018-01-03T10:16:05.747Z,94081.39
2018-01-03T10:18:33.267Z,94072.98
2018-01-03T10:21:00.789Z,94079.41
2018-01-03T10:23:28.373Z,94073.89
2018-01-03T10:25:55.960Z,94072.78
2018-01-03T10:28:23.625Z,94066.97
2018-01-03T10:30:51.143Z,94059.66
2018-01-03T10:33:18.659Z,94054.44
2018-01-03T10:35:46.172Z,94042.03
2018-01-03T10:38:13.692Z,94037.30
2018-01-03T10:40:41.212Z,94032.91
2018-01-03T10:43:08.733Z,94026.16
2018-01-03T10:45:36.261Z,94023.86
2018-01-03T10:48:03.848Z,94015.59
2018-01-03T10:50:31.445Z,94005.88
2018-01-03T10:52:59.034Z,93999.02
2018-01-03T10:55:26.653Z,94002.35
2018-01-03T10:57:54.170Z,94006.42
2018-01-03T11:00:21.756Z,94003.10
2018-01-03T11:02:49.274Z,94004.09
2018-01-03T11:05:16.792Z,94002.66
2018-01-03T11:07:44.307Z,94001.11
2018-01-03T11:10:11.824Z,93990.00
2018-01-03T11:12:39.371Z,93989.67
2018-01-03T11:15:06.965Z,93987.94
2018-01-03T11:17:35.322Z,93987.78
2018-01-03T11:20:02.835Z,93986.39
2018-01-03T11:22:30.359Z,93974.45
2018-01-03T11:24:57.879Z,93966.27
2018-01-03T11:27:25.479Z,93973.88
2018-01-03T11:29:53.101Z,93972.23
2018-01-03T11:32:20.624Z,93975.56
2018-01-03T11:34:48.150Z,93968.30
2018-01-03T11:37:15.662Z,93963.10
2018-01-03T11:39:43.182Z,93951.09
2018-01-03T11:42:10.699Z,93940.84
2018-01-03T11:44:38.215Z,93935.75
2018-01-03T11:47:05.762Z,93914.92
2018-01-03T11:49:33.353Z,93908.95
2018-01-03T11:52:00.954Z,93904.19
2018-01-03T11:54:28.471Z,93904.84
2018-01-03T11:56:55.991Z,93900.39
2018-01-03T11:59:23.527Z,93903.23
2018-01-03T12:01:51.047Z,93892.91
2018-01-03T12:04:18.566Z,93883.94
2018-01-03T12:06:46.158Z,93886.36
2018-01-03T12:09:13.679Z,93882.44
2018-01-03T12:11:41.195Z,93881.95
2018-01-03T12:14:08.714Z,93875.98
2018-01-03T12:16:36.258Z,93872.86
2018-01-03T12:19:03.852Z,93870.22
2018-01-03T12:21:31.441Z,93858.33
2018-01-03T12:23:58.964Z,93870.05
2018-01-03T12:26:26.487Z,93866.02
2018-01-03T12:28:54.018Z,93867.17
2018-01-03T12:31:21.610Z,93871.95
2018-01-03T12:33:49.242Z,93880.05
2018-01-03T12:36:16.843Z,93882.16
2018-01-03T12:38:44.430Z,93873.51
2018-01-03T12:41:12.024Z,93871.90
2018-01-03T12:43:39.612Z,93867.71
2018-01-03T12:46:07.126Z,93871.08
2018-01-03T12:48:34.648Z,93868.17
2018-01-03T12:51:02.194Z,93864.70
2018-01-03T12:53:29.714Z,93855.77
2018-01-03T12:55:57.230Z,93859.69
2018-01-03T12:58:24.768Z,93852.77
2018-01-03T13:00:52.356Z,93848.12
2018-01-03T13:03:19.946Z,93840.09
2018-01-03T13:05:47.468Z,93836.23
2018-01-03T13:08:14.988Z,93829.48
2018-01-03T13:10:42.512Z,93827.02
2018-01-03T13:13:10.093Z,93824.96
2018-01-03T13:15:37.693Z,93819.63
2018-01-03T13:18:05.211Z,93820.69
2018-01-03T13:20:32.761Z,93809.02
2018-01-03T13:23:00.284Z,93805.19
2018-01-03T13:25:27.801Z,93805.23
2018-01-03T13:27:55.315Z,93811.78
2018-01-03T13:30:22.854Z,93813.59
2018-01-03T13:32:50.379Z,93816.55
2018-01-03T13:35:17.904Z,93815.73
2018-01-03T13:37:45.455Z,93829.31
2018-01-03T13:40:13.041Z,93830.62
2018-01-03T13:42:40.558Z,93827.67
2018-01-03T13:45:08.146Z,93827.75
2018-01-03T13:47:35.745Z,93831.57
2018-01-03T13:50:03.346Z,93827.67
2018-01-03T13:52:30.862Z,93823.05
2018-01-03T13:54:58.489Z,93820.96
2018-01-03T13:57:26.070Z,93821.78
2018-01-03T13:59:53.618Z,93813.72
2018-01-03T14:02:21.137Z,93816.66
2018-01-03T14:04:48.729Z,93811.44
2018-01-03T14:07:16.251Z,93806.29
2018-01-03T14:09:43.771Z,93799.09
2018-01-03T14:12:11.291Z,93791.77
2018-01-03T14:14:38.819Z,93792.55
2018-01-03T14:17:06.340Z,93785.23
2018-01-03T14:19:33.867Z,93791.21
2018-01-03T14:22:01.466Z,93789.58
2018-01-03T14:24:28.996Z,93781.80
2018-01-03T14:26:56.521Z,93786.20
2018-01-03T14:29:24.043Z,93791.14
2018-01-03T14:31:51.571Z,93787.08
2018-01-03T14:34:19.095Z,93785.10
2018-01-03T14:36:46.690Z,93786.13
2018-01-03T14:39:14.255Z,93792.27
2018-01-03T14:41:41.779Z,93798.81
2018-01-03T14:44:09.295Z,93811.68
2018-01-03T14:46:36.814Z,93807.98
2018-01-03T14:49:04.345Z,93797.08
2018-01-03T14:51:31.892Z,93791.16
2018-01-03T14:53:59.419Z,93787.02
2018-01-03T14:56:26.947Z,93793.89
2018-01-03T14:58:54.475Z,93794.76
2018-01-03T15:01:21.995Z,93794.02
2018-01-03T15:03:49.589Z,93798.83
2018-01-03T15:06:17.994Z,93794.30
2018-01-03T15:08:45.532Z,93794.06
2018-01-03T15:11:13.129Z,93792.09
2018-01-03T15:13:40.755Z,93789.13
2018-01-03T15:16:08.342Z,93796.70
2018-01-03T15:18:35.864Z,93796.70
2018-01-03T15:21:03.387Z,93788.63
2018-01-03T15:23:30.905Z,93784.11
2018-01-03T15:25:58.496Z,93773.24
2018-01-03T15:28:26.087Z,93771.80
2018-01-03T15:30:53.676Z,93768.58
2018-01-03T15:33:21.204Z,93765.05
2018-01-03T15:35:48.728Z,93753.81
2018-01-03T15:38:16.250Z,93740.20
2018-01-03T15:40:43.779Z,93729.72
2018-01-03T15:43:11.321Z,93726.39
2018-01-03T15:45:38.839Z,93733.22
2018-01-03T15:48:06.400Z,93747.78
2018-01-03T15:50:33.931Z,93751.48
2018-01-03T15:53:01.521Z,93755.67
2018-01-03T15:55:29.042Z,93752.13
2018-01-03T15:57:56.567Z,93754.55
2018-01-03T16:00:24.099Z,93754.05
2018-01-03T16:02:51.618Z,93750.23
2018-01-03T16:05:19.237Z,93747.96
2018-01-03T16:07:46.825Z,93761.13
2018-01-03T16:10:14.344Z,93767.42
2018-01-03T16:12:41.867Z,93778.77
2018-01-03T16:15:09.436Z,93781.69
2018-01-03T16:17:36.967Z,93781.44
2018-01-03T16:20:04.487Z,93782.05
2018-01-03T16:22:32.113Z,93777.86
2018-01-03T16:24:59.712Z,93770.74
2018-01-03T16:27:27.306Z,93782.09
2018-01-03T16:29:54.826Z,93772.19
2018-01-03T16:32:22.355Z,93765.03
2018-01-03T16:34:49.876Z,93751.62
2018-01-03T16:37:17.407Z,93745.48
2018-01-03T16:39:44.971Z,93727.51
2018-01-03T16:42:12.494Z,93705.70
2018-01-03T16:44:40.016Z,93701.71
2018-01-03T16:47:07.544Z,93688.95
2018-01-03T16:49:35.068Z,93696.84
2018-01-03T16:52:08.073Z,93697.20
2018-01-03T16:54:35.602Z,93714.81
2018-01-03T16:57:03.201Z,93734.22
2018-01-03T16:59:30.724Z,93734.58
2018-01-03T17:01:58.283Z,93740.50
2018-01-03T17:04:25.802Z,93728.95
2018-01-03T17:06:53.331Z,93722.88
2018-01-03T17:09:20.852Z,93722.88
2018-01-03T17:11:48.417Z,93729.47
2018-01-03T17:14:15.958Z,93735.47
2018-01-03T17:16:43.483Z,93734.69
2018-01-03T17:19:11.105Z,93739.75
2018-01-03T17:21:38.630Z,93732.14
2018-01-03T17:24:06.147Z,93724.54
2018-01-03T17:26:33.671Z,93737.66
2018-01-03T17:29:01.195Z,93732.60
2018-01-03T17:31:28.796Z,93740.16
2018-01-03T17:33:56.393Z,93739.67
2018-01-03T17:36:23.946Z,93735.27
2018-01-03T17:38:51.537Z,93727.97
2018-01-03T17:41:19.058Z,93727.81
2018-01-03T17:43:46.575Z,93718.98
2018-01-03T17:46:14.102Z,93717.42
2018-01-03T17:48:41.625Z,93704.39
2018-01-03T17:51:09.138Z,93704.84
2018-01-03T17:53:36.728Z,93715.22
2018-01-03T17:56:04.322Z,93718.59
2018-01-03T17:58:31.839Z,93719.91
2018-01-03T18:00:59.359Z,93728.33
2018-01-03T18:03:26.960Z,93734.63
2018-01-03T18:05:54.479Z,93753.71
2018-01-03T18:08:22.007Z,93759.67
2018-01-03T18:10:49.528Z,93755.44
2018-01-03T18:13:17.043Z,93756.15
2018-01-03T18:15:44.631Z,93752.37
2018-01-03T18:18:12.181Z,93750.10
2018-01-03T18:20:39.703Z,93742.17
2018-01-03T18:23:07.225Z,93733.43
2018-01-03T18:25:34.754Z,93730.36
2018-01-03T18:28:02.279Z,93727.84
2018-01-03T18:30:29.819Z,93727.78
2018-01-03T18:32:57.417Z,93724.64
2018-01-03T18:35:25.546Z,93723.20
2018-01-03T18:37:53.173Z,93715.37
2018-01-03T18:40:20.717Z,93716.19
2018-01-03T18:42:48.259Z,93722.73
2018-01-03T18:45:15.972Z,93722.97
2018-01-03T18:47:44.295Z,93715.96
2018-01-03T18:50:11.925Z,93719.20
2018-01-03T18:52:39.463Z,93713.47
2018-01-03T18:55:07.052Z,93718.03
2018-01-03T18:57:34.579Z,93710.02
2018-01-03T19:00:02.138Z,93700.80
2018-01-03T19:02:29.667Z,93696.93
2018-01-03T19:04:57.202Z,93683.43
2018-01-03T19:07:24.739Z,93678.66
2018-01-03T19:09:52.287Z,93656.92
2018-01-03T19:12:19.825Z,93654.52
2018-01-03T19:14:47.351Z,93640.48
2018-01-03T19:17:15.051Z,93627.14
2018-01-03T19:19:42.649Z,93619.02
2018-01-03T19:22:10.175Z,93620.71
2018-01-03T19:24:37.697Z,93624.48
2018-01-03T19:27:05.239Z,93610.55
2018-01-03T19:29:32.793Z,93609.81
2018-01-03T19:32:00.334Z,93606.39
2018-01-03T19:34:27.894Z,93606.03
2018-01-03T19:36:55.434Z,93602.67
2018-01-03T19:39:22.959Z,93600.52
2018-01-03T19:41:50.494Z,93599.83
2018-01-03T19:44:18.011Z,93591.36
2018-01-03T19:46:45.563Z,93591.00
2018-01-03T19:49:13.088Z,93596.05
2018-01-03T19:51:40.648Z,93588.35
2018-01-03T19:54:08.237Z,93594.65
2018-01-03T19:56:35.844Z,93598.66
2018-01-03T19:59:03.369Z,93591.00
2018-01-03T20:01:30.909Z,93585.80
2018-01-03T20:03:58.516Z,93581.56
2018-01-03T20:06:26.114Z,93583.17
2018-01-03T20:08:53.751Z,93570.08
2018-01-03T20:11:21.345Z,93564.47
2018-01-03T20:13:48.949Z,93563.89
2018-01-03T20:16:16.545Z,93552.67
2018-01-03T20:18:44.066Z,93560.96
2018-01-03T20:21:11.635Z,93559.59
2018-01-03T20:23:39.167Z,93564.64
2018-01-03T20:26:06.764Z,93572.94
2018-01-03T20:28:34.366Z,93577.61
2018-01-03T20:31:01.956Z,93576.56
2018-01-03T20:33:29.575Z,93570.23
2018-01-03T20:35:57.175Z,93563.53
2018-01-03T20:38:24.731Z,93558.06
2018-01-03T20:40:52.250Z,93555.23
2018-01-03T20:43:19.774Z,93551.36
2018-01-03T20:45:47.374Z,93546.72
2018-01-03T20:48:14.974Z,93530.55
2018-01-03T20:50:42.580Z,93530.87
2018-01-03T20:53:10.120Z,93518.61
2018-01-03T20:55:37.686Z,93523.08
2018-01-03T20:58:05.214Z,93517.30
2018-01-03T21:00:32.742Z,93510.73
2018-01-03T21:03:00.365Z,93502.53
2018-01-03T21:05:27.960Z,93506.13
2018-01-03T21:07:55.487Z,93509.63
2018-01-03T21:10:23.038Z,93514.04
2018-01-03T21:12:50.690Z,93506.84
2018-01-03T21:15:18.237Z,93514.55
2018-01-03T21:17:45.797Z,93506.75
2018-01-03T21:20:13.392Z,93507.02
2018-01-03T21:22:40.923Z,93500.29
2018-01-03T21:25:08.480Z,93500.37
2018-01-03T21:27:36.027Z,93498.56
2018-01-03T21:30:03.621Z,93497.05
2018-01-03T21:32:31.220Z,93496.19
2018-01-03T21:34:58.820Z,93494.63
2018-01-03T21:37:26.347Z,93493.48
2018-01-03T21:39:53.940Z,93480.80
2018-01-03T21:42:21.579Z,93477.51
2018-01-03T21:44:49.186Z,93469.50
2018-01-03T21:47:16.731Z,93463.67
2018-01-03T21:49:44.345Z,93475.41
2018-01-03T21:52:11.937Z,93465.62
2018-01-03T21:54:39.544Z,93462.22
2018-01-03T21:57:07.136Z,93476.16
2018-01-03T21:59:34.773Z,93468.00
2018-01-03T22:02:02.388Z,93473.09
2018-01-03T22:04:29.940Z,93469.37
2018-01-03T22:06:57.471Z,93467.92
2018-01-03T22:09:25.018Z,93474.44
2018-01-03T22:11:52.552Z,93479.59
2018-01-03T22:14:20.079Z,93482.73
2018-01-03T22:16:47.617Z,93485.56
2018-01-03T22:19:15.223Z,93479.81
2018-01-03T22:21:42.763Z,93482.60
2018-01-03T22:24:10.290Z,93481.69
2018-01-03T22:26:37.835Z,93487.56
2018-01-03T22:29:05.394Z,93487.61
2018-01-03T22:31:32.984Z,93489.96
2018-01-03T22:34:00.584Z,93489.24
2018-01-03T22:36:28.193Z,93496.52
2018-01-03T22:38:55.731Z,93496.11
2018-01-03T22:41:23.332Z,93501.72
2018-01-03T22:43:50.940Z,93498.89
2018-01-03T22:46:18.499Z,93496.34
2018-01-03T22:48:46.032Z,93497.20
2018-01-03T22:51:13.640Z,93498.94
2018-01-03T22:53:41.166Z,93499.84
2018-01-03T22:56:08.764Z,93496.88
2018-01-03T22:58:36.288Z,93494.33
2018-01-03T23:01:03.894Z,93498.15
2018-01-03T23:03:31.432Z,93490.69
2018-01-03T23:05:59.020Z,93486.95
2018-01-03T23:08:26.616Z,93481.76
2018-01-03T23:10:54.145Z,93485.17
2018-01-03T23:13:21.755Z,93484.90
2018-01-03T23:15:49.353Z,93493.48
2018-01-03T23:18:16.981Z,93486.70
2018-01-03T23:20:44.508Z,93496.05
2018-01-03T23:23:12.036Z,93498.46
2018-01-03T23:25:39.567Z,93500.60
2018-01-03T23:28:07.169Z,93504.78
2018-01-03T23:30:34.774Z,93505.93
2018-01-03T23:33:02.369Z,93505.93
2018-01-03T23:35:30.051Z,93504.12
2018-01-03T23:37:57.618Z,93505.34
2018-01-03T23:40:25.209Z,93503.66
2018-01-03T23:42:52.740Z,93507.08
2018-01-03T23:45:20.279Z,93514.57
2018-01-03T23:47:47.799Z,93512.53
2018-01-03T23:50:15.327Z,93512.38
2018-01-03T23:52:42.958Z,93503.91
2018-01-03T23:55:10.561Z,93501.41
2018-01-03T23:57:38.092Z,93510.34
